Mario Luis — CUOW8 — position and weather

sailwx.info

Track history (hours):
 
Tides and Currents Weather Stations Pressure Air Temp Water Temp Dewpoint Dewpoint Depression Visibility Wind Speed Wind Dir Waves Ship Positions

Mario Luis

Last reported at 2017-Oct-17 09:40 UTC. Time now 2017-Oct-17 13:15 UTC.
Position N 37°01' W 008°56'.

Length 23 m.

Type: Fishing. MMSI: 263401680.

Date/timePositionNaut miles runAvg speedWind from/ knotsBaromVisibWave heightAir tempDewpointWater temp
2017-Oct-17 09:40N 37°01' W 008°56'0 0.0
2017-Oct-17 09:26N 37°01' W 008°56'0 0.0
2017-Oct-17 01:22N 37°01' W 008°56'0 0.0
2017-Oct-16 10:24N 37°01' W 008°56'0 0.1
2017-Oct-16 10:00N 37°01' W 008°56'0 0.0
2017-Oct-16 09:29N 37°01' W 008°56'1 0.1
2017-Oct-16 01:46N 37°00' W 008°55'1 2.6
2017-Oct-16 01:30N 37°01' W 008°56'  
2017-Oct-13 07:24N 36°59' W 008°56'2 0.1
2017-Oct-12 08:32N 36°59' W 008°58'0 4.7
2017-Oct-12 08:29N 36°59' W 008°58'2 0.0
2017-Oct-10 06:36N 37°00' W 008°56'2 8.2
2017-Oct-10 06:20N 37°00' W 008°58'3 9.2
2017-Oct-10 06:00N 37°03' W 008°60'611.1
2017-Oct-10 05:27N 37°09' W 008°57'410.0
2017-Oct-10 05:00N 37°13' W 008°55'1 1.0
2017-Oct-10 04:31N 37°13' W 008°55'0 0.3
2017-Oct-10 04:01N 37°13' W 008°55'0 0.3
2017-Oct-10 03:30N 37°13' W 008°55'3 5.8
2017-Oct-10 03:00N 37°11' W 008°57'510.3
2017-Oct-10 02:31N 37°06' W 008°59'5 9.2
2017-Oct-10 02:00N 37°01' W 008°60'4 5.0
2017-Oct-10 01:18N 37°01' W 008°56'0 0.0
2017-Oct-09 08:22N 37°01' W 008°56'2 4.7
2017-Oct-09 08:00N 36°60' W 008°58'5 9.7
2017-Oct-09 07:29N 37°05' W 008°60'510.8
2017-Oct-09 07:01N 37°09' W 008°57'510.3
2017-Oct-09 06:31N 37°14' W 008°55'2 3.6
2017-Oct-09 05:59N 37°16' W 008°54'0 0.1
2017-Oct-09 05:30N 37°16' W 008°54'0 0.1
2017-Oct-09 05:01N 37°16' W 008°53'0 0.1
2017-Oct-09 04:31N 37°16' W 008°53'2 4.4
2017-Oct-09 04:00N 37°14' W 008°53'4 7.2
2017-Oct-09 03:30N 37°10' W 008°55'4 8.9
2017-Oct-09 03:01N 37°06' W 008°58'6 7.8
2017-Oct-09 02:15N 37°01' W 008°60'2 6.0
2017-Oct-09 01:59N 37°00' W 008°58'2 3.6
2017-Oct-09 01:31N 36°60' W 008°56'  
Track history (hours):
 
Tides and Currents Weather Stations Pressure Air Temp Water Temp Dewpoint Dewpoint Depression Visibility Wind Speed Wind Dir Waves Ship Positions

Mario Luis

Last reported at 2017-Oct-17 09:40 UTC. Time now 2017-Oct-17 13:15 UTC.
Position N 37°01' W 008°56'.

Length 23 m.

Type: Fishing. MMSI: 263401680.

Date/timePositionNaut miles runAvg speedWind from/ knotsBaromVisibWave heightAir tempDewpointWater temp
2017-Oct-17 09:40N 37°01' W 008°56'0 0.0
2017-Oct-17 09:26N 37°01' W 008°56'0 0.0
2017-Oct-17 01:22N 37°01' W 008°56'0 0.0
2017-Oct-16 10:24N 37°01' W 008°56'0 0.1
2017-Oct-16 10:00N 37°01' W 008°56'0 0.0
2017-Oct-16 09:29N 37°01' W 008°56'1 0.1
2017-Oct-16 01:46N 37°00' W 008°55'1 2.6
2017-Oct-16 01:30N 37°01' W 008°56'  
2017-Oct-13 07:24N 36°59' W 008°56'2 0.1
2017-Oct-12 08:32N 36°59' W 008°58'0 4.7
2017-Oct-12 08:29N 36°59' W 008°58'2 0.0
2017-Oct-10 06:36N 37°00' W 008°56'2 8.2
2017-Oct-10 06:20N 37°00' W 008°58'3 9.2
2017-Oct-10 06:00N 37°03' W 008°60'611.1
2017-Oct-10 05:27N 37°09' W 008°57'410.0
2017-Oct-10 05:00N 37°13' W 008°55'1 1.0
2017-Oct-10 04:31N 37°13' W 008°55'0 0.3
2017-Oct-10 04:01N 37°13' W 008°55'0 0.3
2017-Oct-10 03:30N 37°13' W 008°55'3 5.8
2017-Oct-10 03:00N 37°11' W 008°57'510.3
2017-Oct-10 02:31N 37°06' W 008°59'5 9.2
2017-Oct-10 02:00N 37°01' W 008°60'4 5.0
2017-Oct-10 01:18N 37°01' W 008°56'0 0.0
2017-Oct-09 08:22N 37°01' W 008°56'2 4.7
2017-Oct-09 08:00N 36°60' W 008°58'5 9.7
2017-Oct-09 07:29N 37°05' W 008°60'510.8
2017-Oct-09 07:01N 37°09' W 008°57'510.3
2017-Oct-09 06:31N 37°14' W 008°55'2 3.6
2017-Oct-09 05:59N 37°16' W 008°54'0 0.1
2017-Oct-09 05:30N 37°16' W 008°54'0 0.1
2017-Oct-09 05:01N 37°16' W 008°53'0 0.1
2017-Oct-09 04:31N 37°16' W 008°53'2 4.4
2017-Oct-09 04:00N 37°14' W 008°53'4 7.2
2017-Oct-09 03:30N 37°10' W 008°55'4 8.9
2017-Oct-09 03:01N 37°06' W 008°58'6 7.8
2017-Oct-09 02:15N 37°01' W 008°60'2 6.0
2017-Oct-09 01:59N 37°00' W 008°58'2 3.6
2017-Oct-09 01:31N 36°60' W 008°56'  

Dump ship's entire track history